Airfield :
LOGIN :

Register | Disclaimer

   EN    FR    IT 

 










Legend :    VFR   Marginal VFR   IFR   Intensive IFR   Very Intensive IFR
Visi :
Ceiling :
>= 8 km
>= 3000ft
5 to 8 km
1000 to 3000 ft
1500m to 5 km
500 to 1000 ft
800 to 1500m
200 to 500 ft
< 800m
< 200 ft
Symbols :   Thunderstorms  Fog  Heavy snow  Heavy precipitations  Wind > 20 kt
SIGMETs :     Misc.  Thunderstorms  Icing  Turbulence  Mountain Waves  Volcanic Ashes







- Airport Elevation : 885 ft
- IATA code : BAS
- Download approach charts


LFSB - Bale-Mulhouse

CURRENT METAR :
  • 230000Z AUTO 25011KT 9999 ///TCU 08/06 Q1021 BECMG SCT020 BKN060

EXPIRED METARs :
  • 222330Z AUTO 26012KT CAVOK 09/06 Q1021 NOSIG
  • 222300Z AUTO 25010KT CAVOK 08/06 Q1021 NOSIG
  • 222230Z AUTO 25010KT 9999 FEW025 BKN062 OVC080 08/06 Q1021 NOSIG
  • 222200Z 25012KT 9999 FEW026 BKN040 BKN050 09/06 Q1021 RESHRA NOSIG
  • 222130Z 25008KT 220V280 9999 FEW026 BKN050 09/05 Q1021 NOSIG

TAF TAF LFSB
Valid from the 23 at 00:00 until the 24 at 00:00 UTC


222300Z 2300/2324 26010KT 9999 SCT020 BKN060
TEMPO 2300/2324 -SHRA
PROB40
TEMPO 2312/2321 28015G25KT 4000 SHRA
Met : +33 3 89 90 31 11
No reported NOTAMs for that airfield.
1 SIGMET reported for the Reims FIR (LFEE) :
 
Severe turbulence
LFEE SIGMET 7 VALID 222300/230300 LFPW
LFEE REIMS FIR/UIR SEV TURB FCST NE OF LINE N4745 E00445 - N4630 E00515 FL220/320 MOV E 15KT NC=



MET'MAP, your aeronautical weather chart ! - Copyright ORBIFLY December 2007 - Disclaimer

ORBIFLY MET'MAP TEAM :

Programming & Development : Alexandra Zaïnal
Concept & Development : Baudouin d'Aumeries
Co-Development & Prog : Marc-Olivier Méhu
Technical & hardware support : Manuel Goepfert

Contact : metmap@orbifly.com




SOURCES & CREDITS :

   NOAA